createdAt,value
2022-11-28T08:24:10.128Z,15.63
2022-11-28T08:26:39.207Z,17.30
2022-11-28T08:29:07.454Z,13.97
2022-11-28T08:31:37.695Z,20.47
2022-11-28T08:34:08.583Z,16.95
2022-11-28T08:36:36.874Z,24.48
2022-11-28T08:41:57.273Z,21.90
2022-11-28T08:44:26.040Z,14.13
2022-11-28T08:46:54.790Z,17.73
2022-11-28T08:49:26.184Z,13.30
2022-11-28T08:51:54.339Z,13.97
2022-11-28T08:54:23.435Z,10.93
2022-11-28T08:56:51.630Z,13.73
2022-11-28T08:59:21.184Z,14.13
2022-11-28T09:01:49.410Z,16.83
2022-11-28T09:04:17.647Z,14.50
2022-11-28T09:06:46.219Z,12.63
2022-11-28T09:09:14.395Z,20.60
2022-11-28T09:11:42.807Z,16.63
2022-11-28T09:14:10.908Z,14.43
2022-11-28T09:16:43.103Z,13.80
2022-11-28T09:19:11.334Z,19.70
2022-11-28T09:21:40.658Z,15.87
2022-11-28T09:24:09.938Z,11.60
2022-11-28T09:26:39.570Z,13.77
2022-11-28T09:29:07.778Z,12.63
2022-11-28T09:31:35.856Z,14.97
2022-11-28T09:34:05.341Z,14.60
2022-11-28T09:36:34.086Z,18.93
2022-11-28T09:39:02.523Z,19.87
2022-11-28T09:41:46.816Z,20.30
2022-11-28T09:44:22.036Z,14.50
2022-11-28T09:46:53.277Z,26.73
2022-11-28T09:49:36.729Z,22.73
2022-11-28T09:52:17.850Z,22.87
2022-11-28T09:54:52.897Z,22.23
2022-11-28T09:57:32.467Z,25.37
2022-11-28T10:00:00.833Z,22.77
2022-11-28T10:02:36.286Z,21.57
2022-11-28T10:05:17.376Z,23.50
2022-11-28T10:07:55.549Z,23.20
2022-11-28T10:10:33.373Z,23.67
2022-11-28T10:13:07.593Z,20.53
2022-11-28T10:15:50.727Z,15.23
2022-11-28T10:18:32.101Z,16.93
2022-11-28T10:21:06.045Z,9.57
2022-11-28T10:23:39.933Z,12.10
2022-11-28T10:26:09.931Z,15.90
2022-11-28T10:28:41.095Z,13.73
2022-11-28T10:33:44.915Z,14.37
2022-11-28T10:36:22.652Z,14.07
2022-11-28T10:38:50.804Z,14.20
2022-11-28T10:41:26.417Z,31.53
2022-11-28T10:44:01.415Z,10.50
2022-11-28T10:46:44.227Z,14.83
2022-11-28T10:49:27.707Z,9.93
2022-11-28T10:52:08.680Z,12.70
2022-11-28T10:55:01.545Z,7.82
2022-11-28T10:57:37.557Z,6.43
2022-11-28T11:00:12.333Z,9.37
2022-11-28T11:02:47.565Z,9.70
2022-11-28T11:05:25.477Z,7.87
2022-11-28T11:07:57.290Z,7.97
2022-11-28T11:10:31.347Z,5.87
2022-11-28T11:13:01.178Z,12.87
2022-11-28T11:15:33.441Z,8.43
2022-11-28T11:18:05.642Z,7.50
2022-11-28T11:20:39.603Z,6.67
2022-11-28T11:23:19.062Z,5.37
2022-11-28T11:25:50.957Z,7.40
2022-11-28T11:28:41.369Z,10.70
2022-11-28T11:31:20.150Z,6.32
2022-11-28T11:33:49.931Z,6.67
2022-11-28T11:36:28.077Z,4.27
2022-11-28T11:39:17.002Z,5.67
2022-11-28T11:41:47.020Z,7.80
2022-11-28T11:44:30.735Z,11.30
2022-11-28T11:47:02.943Z,6.33
2022-11-28T11:49:33.561Z,7.30
2022-11-28T11:52:07.298Z,4.63
2022-11-28T11:54:37.266Z,8.87
2022-11-28T11:57:31.331Z,6.77
2022-11-28T12:00:01.412Z,7.03
2022-11-28T12:02:45.473Z,4.17
2022-11-28T12:05:16.507Z,3.83
2022-11-28T12:07:55.900Z,5.57
2022-11-28T12:10:29.472Z,6.73
2022-11-28T12:12:57.988Z,7.07
2022-11-28T12:15:40.441Z,7.23
2022-11-28T12:18:23.322Z,6.17
2022-11-28T12:21:03.096Z,10.00
2022-11-28T12:23:46.505Z,8.47
2022-11-28T12:26:24.296Z,9.30
2022-11-28T12:29:09.514Z,6.05
2022-11-28T12:31:50.559Z,5.80
2022-11-28T12:34:31.779Z,2.97
2022-11-28T12:37:12.398Z,5.10
2022-11-28T12:39:51.925Z,5.65
2022-11-28T12:42:34.853Z,4.65
2022-11-28T12:45:31.355Z,2.58
2022-11-28T12:48:11.858Z,3.83
2022-11-28T12:50:42.902Z,5.68
2022-11-28T12:56:01.316Z,2.33
2022-11-28T12:58:34.974Z,6.40
2022-11-28T13:01:18.215Z,4.63
2022-11-28T13:04:01.092Z,6.55
2022-11-28T13:06:41.330Z,5.13
2022-11-28T13:09:27.170Z,6.47
2022-11-28T13:12:08.503Z,3.40
2022-11-28T13:14:49.240Z,10.70
2022-11-28T13:17:35.897Z,6.68
2022-11-28T13:20:14.773Z,6.45
2022-11-28T13:22:56.556Z,4.40
2022-11-28T13:25:31.607Z,6.50
2022-11-28T13:28:08.657Z,10.83
2022-11-28T13:30:45.998Z,8.10
2022-11-28T13:33:31.372Z,6.22
2022-11-28T13:36:01.317Z,7.00
2022-11-28T13:38:53.125Z,8.70
2022-11-28T13:42:09.583Z,8.97
2022-11-28T13:44:35.201Z,7.90
2022-11-28T13:47:27.748Z,10.30
2022-11-28T13:50:37.513Z,3.73
2022-11-28T13:53:22.615Z,8.32
2022-11-28T13:55:52.245Z,3.87
2022-11-28T13:58:25.498Z,10.93
2022-11-28T14:01:08.178Z,7.82
2022-11-28T14:03:46.147Z,12.20
2022-11-28T14:06:17.838Z,7.65
2022-11-28T14:08:50.060Z,4.83
2022-11-28T14:11:49.863Z,6.90
2022-11-28T14:14:41.279Z,7.77
2022-11-28T14:17:23.153Z,6.70
2022-11-28T14:20:17.805Z,11.93
2022-11-28T14:22:59.695Z,10.40
2022-11-28T14:25:32.124Z,9.00
2022-11-28T14:28:03.372Z,9.07
2022-11-28T14:30:35.222Z,8.38
2022-11-28T14:33:07.295Z,6.30
2022-11-28T14:36:06.115Z,6.40
2022-11-28T14:38:47.682Z,6.83
2022-11-28T14:41:18.042Z,7.20
2022-11-28T14:43:47.445Z,7.45
2022-11-28T14:46:28.377Z,11.23
2022-11-28T14:49:21.542Z,9.00
2022-11-28T14:52:41.031Z,12.83
2022-11-28T14:55:22.837Z,8.20
2022-11-28T14:57:56.978Z,6.38
2022-11-28T15:00:27.825Z,6.95
2022-11-28T15:03:20.518Z,3.80
2022-11-28T15:05:50.923Z,13.55
2022-11-28T15:08:51.770Z,5.85
2022-11-28T15:11:30.888Z,4.60
2022-11-28T15:14:10.014Z,8.90
2022-11-28T15:16:49.826Z,8.38
2022-11-28T15:19:25.879Z,13.10
2022-11-28T15:21:55.283Z,7.63
2022-11-28T15:24:32.167Z,8.13
2022-11-28T15:27:20.210Z,7.63
2022-11-28T15:29:55.287Z,7.47
2022-11-28T15:32:24.189Z,10.02
2022-11-28T15:34:57.002Z,9.30
2022-11-28T15:37:30.380Z,7.63
2022-11-28T15:40:06.181Z,7.17
2022-11-28T15:42:37.896Z,8.70
2022-11-28T15:45:09.710Z,8.63
2022-11-28T15:47:38.994Z,10.53
2022-11-28T15:50:18.281Z,8.97
2022-11-28T15:52:58.197Z,8.43
2022-11-28T15:55:30.759Z,6.03
2022-11-28T15:58:14.238Z,9.65
2022-11-28T16:00:48.450Z,5.87
2022-11-28T16:03:21.581Z,10.38
2022-11-28T16:05:52.265Z,8.90
2022-11-28T16:08:28.439Z,10.15
2022-11-28T16:10:59.963Z,8.87
2022-11-28T16:13:30.615Z,7.27
2022-11-28T16:16:01.447Z,7.55
2022-11-28T16:18:30.597Z,6.68
2022-11-28T16:21:00.988Z,7.67
2022-11-28T16:23:31.455Z,10.20
2022-11-28T16:26:03.230Z,4.07
2022-11-28T16:28:33.443Z,6.73
2022-11-28T16:31:01.700Z,5.47
2022-11-28T16:33:38.627Z,7.27
2022-11-28T16:36:12.277Z,4.50
2022-11-28T16:38:41.186Z,6.87
2022-11-28T16:41:17.228Z,6.60
2022-11-28T16:43:49.983Z,6.43
2022-11-28T16:46:23.756Z,4.97
2022-11-28T16:48:56.584Z,11.53
2022-11-28T16:51:37.037Z,12.10
2022-11-28T16:54:38.379Z,13.27
2022-11-28T16:59:44.051Z,10.10
2022-11-28T17:02:17.938Z,9.83
2022-11-28T17:04:47.211Z,9.17
2022-11-28T17:07:17.192Z,9.60
2022-11-28T17:09:47.350Z,9.60
2022-11-28T17:12:25.309Z,7.33
2022-11-28T17:14:53.654Z,11.20
2022-11-28T17:17:24.341Z,13.90
2022-11-28T17:19:53.103Z,10.73
2022-11-28T17:22:23.174Z,11.00
2022-11-28T17:24:53.138Z,9.73
2022-11-28T17:27:22.700Z,11.90
2022-11-28T17:29:51.086Z,10.77
2022-11-28T17:32:22.077Z,8.63
2022-11-28T17:37:18.111Z,8.07
2022-11-28T17:40:00.257Z,10.20
2022-11-28T17:42:29.772Z,14.57
2022-11-28T17:44:57.911Z,12.60
2022-11-28T17:47:26.019Z,13.10
2022-11-28T17:49:54.049Z,17.37
2022-11-28T17:52:22.281Z,17.20
2022-11-28T17:54:50.479Z,16.33
2022-11-28T17:57:18.681Z,16.67
2022-11-28T17:59:48.507Z,12.90
2022-11-28T18:02:16.855Z,15.93
2022-11-28T18:04:45.190Z,18.13
2022-11-28T18:07:13.826Z,18.73
2022-11-28T18:09:42.359Z,20.73
2022-11-28T18:12:10.686Z,24.67
2022-11-28T18:14:39.891Z,24.27
2022-11-28T18:17:09.989Z,18.20
2022-11-28T18:19:38.213Z,10.43
2022-11-28T18:22:08.165Z,9.30
2022-11-28T18:24:36.292Z,10.73
2022-11-28T18:27:04.492Z,15.27
2022-11-28T18:29:34.326Z,6.23
2022-11-28T18:32:02.580Z,10.30
2022-11-28T18:34:32.182Z,7.10
2022-11-28T18:37:00.927Z,7.00
2022-11-28T18:39:33.203Z,10.63
2022-11-28T18:42:01.660Z,8.30
2022-11-28T18:44:29.984Z,7.80
2022-11-28T18:46:58.133Z,5.30
2022-11-28T18:49:27.528Z,3.70
2022-11-28T18:51:58.059Z,8.37
2022-11-28T18:54:26.274Z,6.68
2022-11-28T18:56:54.433Z,7.07
2022-11-28T18:59:23.273Z,1.93
2022-11-28T19:01:51.635Z,4.17
2022-11-28T19:04:19.794Z,6.73
2022-11-28T19:06:48.613Z,7.23
2022-11-28T19:09:19.216Z,5.77
2022-11-28T19:11:48.328Z,6.35
2022-11-28T19:14:17.646Z,5.77
2022-11-28T19:16:47.041Z,8.77
2022-11-28T19:19:18.432Z,6.97
2022-11-28T19:21:49.710Z,5.93
2022-11-28T19:24:20.253Z,7.53
2022-11-28T19:26:48.482Z,5.60
2022-11-28T19:29:16.783Z,5.73
2022-11-28T19:31:45.421Z,8.37
2022-11-28T19:34:15.244Z,11.90
2022-11-28T19:36:45.897Z,5.33
2022-11-28T19:39:17.957Z,6.78
2022-11-28T19:41:48.235Z,7.67
2022-11-28T19:44:17.062Z,11.20
2022-11-28T19:46:45.691Z,9.87
2022-11-28T19:49:17.997Z,8.83
2022-11-28T19:51:47.221Z,7.90
2022-11-28T19:54:15.775Z,6.63
2022-11-28T19:56:44.375Z,10.57
2022-11-28T19:59:14.090Z,10.40
2022-11-28T20:01:45.521Z,10.13
2022-11-28T20:04:14.907Z,13.37
2022-11-28T20:06:44.004Z,13.30
2022-11-28T20:09:13.759Z,9.97
2022-11-28T20:11:44.189Z,10.70
2022-11-28T20:14:15.832Z,15.03
2022-11-28T20:19:14.767Z,17.13
2022-11-28T20:21:46.118Z,10.27
2022-11-28T20:24:15.241Z,17.53
2022-11-28T20:26:45.151Z,10.90
2022-11-28T20:29:17.496Z,15.10
2022-11-28T20:31:48.455Z,13.73
2022-11-28T20:34:18.990Z,18.37
2022-11-28T20:36:52.766Z,18.07
2022-11-28T20:39:21.624Z,21.88
2022-11-28T20:41:49.931Z,20.03
2022-11-28T20:44:20.358Z,17.97
2022-11-28T20:46:50.099Z,19.80
2022-11-28T20:49:18.752Z,18.30
2022-11-28T20:51:47.389Z,21.60
2022-11-28T20:54:15.581Z,16.90
2022-11-28T20:57:19.848Z,10.57
2022-11-28T20:59:34.757Z,15.73
2022-11-28T21:02:02.939Z,15.60
2022-11-28T21:04:31.128Z,12.57
2022-11-28T21:07:26.728Z,13.87
2022-11-28T21:09:59.799Z,14.27
2022-11-28T21:12:27.936Z,18.00
2022-11-28T21:14:57.340Z,16.00
2022-11-28T21:17:26.335Z,13.13
2022-11-28T21:19:54.329Z,16.73
2022-11-28T21:22:22.453Z,20.07
2022-11-28T21:25:40.594Z,14.17
2022-11-28T21:28:09.898Z,24.60
2022-11-28T21:30:43.083Z,16.40
2022-11-28T21:33:12.796Z,14.53
2022-11-28T21:35:41.360Z,13.93
2022-11-28T21:38:09.757Z,15.57
2022-11-28T21:40:37.860Z,16.47
2022-11-28T21:43:06.028Z,18.57
2022-11-28T21:45:35.126Z,19.70
2022-11-28T21:48:05.526Z,22.17
2022-11-28T21:50:33.699Z,17.63
2022-11-28T21:53:01.979Z,20.50
2022-11-28T21:55:30.131Z,18.93
2022-11-28T21:57:59.602Z,13.43
2022-11-28T22:00:52.227Z,17.90
2022-11-28T22:03:17.595Z,15.27
2022-11-28T22:05:45.949Z,18.27
2022-11-28T22:08:14.112Z,16.53
2022-11-28T22:10:42.444Z,17.33
2022-11-28T22:13:10.581Z,17.43
2022-11-28T22:15:40.887Z,17.53
2022-11-28T22:18:09.596Z,18.40
2022-11-28T22:20:43.531Z,23.93
2022-11-28T22:23:13.352Z,19.43
2022-11-28T22:25:42.601Z,19.67
2022-11-28T22:28:10.759Z,19.13
2022-11-28T22:30:39.175Z,17.10
2022-11-28T22:33:07.282Z,17.57
2022-11-28T22:35:35.907Z,22.37
2022-11-28T22:38:05.609Z,18.63
2022-11-28T22:40:33.726Z,20.10
2022-11-28T22:43:01.808Z,17.40
2022-11-28T22:45:30.232Z,15.73
2022-11-28T22:47:58.950Z,14.30
2022-11-28T22:50:27.391Z,18.77
2022-11-28T22:52:55.530Z,20.30
2022-11-28T22:55:25.235Z,17.33
2022-11-28T22:57:53.882Z,15.20
2022-11-28T23:00:22.652Z,15.53
2022-11-28T23:02:51.061Z,18.33
2022-11-28T23:05:19.316Z,19.43
2022-11-28T23:07:47.682Z,17.73
2022-11-28T23:10:15.946Z,19.03
2022-11-28T23:12:45.678Z,20.80
2022-11-28T23:15:14.304Z,19.07
2022-11-28T23:17:42.848Z,19.67
2022-11-28T23:20:11.571Z,22.53
2022-11-28T23:22:39.694Z,22.43
2022-11-28T23:25:09.011Z,18.30
2022-11-28T23:27:37.389Z,19.53
2022-11-28T23:30:08.632Z,27.60
2022-11-28T23:32:36.773Z,22.97
2022-11-28T23:35:05.527Z,29.30
2022-11-28T23:37:38.396Z,28.20
2022-11-28T23:40:07.965Z,22.77
2022-11-28T23:42:36.075Z,22.13
2022-11-28T23:45:04.558Z,27.13
2022-11-28T23:47:34.056Z,32.67
2022-11-28T23:50:02.241Z,38.07
2022-11-28T23:52:30.233Z,29.87
2022-11-28T23:54:58.277Z,33.60
2022-11-28T23:57:26.252Z,34.07
2022-11-28T23:59:54.429Z,34.10
